Tiempo atmosférico en la estación meteorológica de Castell Del Ferro, Granada (235 m.)



Fecha
DESCASC
Temp. máxima en grados centígrados (hora)
DESCASC
Temp. mínima en grados centígrados (hora)
DESCASC
Temp. media en grados centígrados
DESCASC
Racha de viento máxima en m/sg (hora)
DESCASC
Velocidad máxima media en intervalos de 10 minutos(hora)
DESCASC
Precipitaciones diarias en mm
DESCASC
Precipitaciones de 00:00 a 06:00 en mm
DESCASC
Precipitaciones de 06:00 a 12:00 en mm
DESCASC
Precipitaciones de 12:00 a 18:00 en mm
DESCASC
Precipitaciones de 18:00 a 24:00 en mm
DESCASC

Gráficas

Temp. máximas Temp. mínimas Temp. medias Precipitaciones Rachas de viento máximas Velocidades máximas media en intervalos de 10 minutos

Datos horarios

Fecha y hora oficial Temperatura (ºC) Velocidad del viento (km/h) Dirección del viento Racha (km/h) Dirección de racha Precipitación (mm) Presión (hPa) Tendencia (hPa) Humedad (%)
2020-01-21 23:00:00 8.8 6 Oeste 9 Nordeste 0.2 -- -- 86
2020-01-21 22:00:00 8.7 2 Sudeste 8 Sudeste 0 -- -- 86
2020-01-21 21:00:00 8.6 0 Calma 8 Oeste 0.4 -- -- 86
2020-01-21 20:00:00 8.8 5 Oeste 8 Noroeste 0.6 -- -- 87
2020-01-21 19:00:00 9.2 4 Oeste 5 Oeste 0.8 -- -- 89
2020-01-21 18:00:00 9.6 0 Calma 5 Sudeste 1.6 -- -- 87
2020-01-21 17:00:00 10.5 3 Sudeste 9 Oeste 0.2 -- -- 79
2020-01-21 16:00:00 10 8 Oeste 20 Oeste 1 -- -- 81
2020-01-21 15:00:00 12.4 3 Nordeste 10 Noroeste 0 -- -- 65
2020-01-21 14:00:00 12.4 3 Nordeste 14 Sudeste 0 -- -- 67
2020-01-21 13:00:00 12.3 5 Este 8 Este 0 -- -- 62
2020-01-21 12:00:00 10.8 4 Noroeste 8 Oeste 0 -- -- 66
2020-01-21 11:00:00 10.3 0 Calma 3 Este 0 -- -- 71
2020-01-21 10:00:00 9.8 0 Calma 8 Oeste 0 -- -- 71
2020-01-21 09:00:00 8.8 2 Oeste 6 Oeste 0 -- -- 69
2020-01-21 08:00:00 8.8 2 Oeste 9 Oeste 0 -- -- 73
2020-01-21 07:00:00 9.1 0 Calma 9 Sudoeste 0.2 -- -- 71
2020-01-21 06:00:00 9.3 2 Oeste 12 Sudoeste 0 -- -- 69
2020-01-21 05:00:00 9.8 8 Sudoeste 15 Sudoeste 0 -- -- 67
2020-01-21 04:00:00 9.7 10 Sudoeste 17 Oeste 0 -- -- 65
2020-01-21 03:00:00 8.9 10 Oeste 15 Oeste 0 -- -- 71
2020-01-21 02:00:00 9.1 3 Oeste 22 Sudeste 0 -- -- 79
2020-01-21 01:00:00 9.8 8 Sur 12 Sur 0 -- -- 72
2020-01-21 00:00:00 9.9 3 Sudoeste 7 Este 0 -- -- 63
2020-01-20 23:00:00 10.3 6 Sudeste 24 Sudeste 0 -- -- 70
2020-01-20 22:00:00 10.3 5 Este 13 Este 0 -- -- 64
2020-01-20 21:00:00 10.1 8 Sudeste 27 Sudeste 0 -- -- 71
2020-01-20 20:00:00 10.3 10 Este 22 Nordeste 0 -- -- 64
2020-01-20 19:00:00 9.7 7 Este 17 Este 0 -- -- 67
2020-01-20 18:00:00 9.3 2 Este 14 Norte 0 -- -- 73
2020-01-20 17:00:00 8.8 2 Nordeste 10 Sudeste 0.4 -- -- 82
2020-01-20 16:00:00 8.5 5 Nordeste 12 Nordeste 0.2 -- -- 81
2020-01-20 15:00:00 8.2 5 Noroeste 10 Este 0.8 -- -- 83
2020-01-20 14:00:00 9.3 5 Este 8 Este 0.8 -- -- 80
2020-01-20 13:00:00 10 3 Sur 9 Este 0 -- -- 69
2020-01-20 12:00:00 10.2 3 Oeste 13 Noroeste 0 -- -- 54
2020-01-20 11:00:00 9 8 Noroeste 14 Oeste 0 -- -- 61
2020-01-20 10:00:00 8.3 9 Oeste 22 Norte 0 -- -- 65
2020-01-20 09:00:00 7.6 8 Oeste 15 Oeste 0 -- -- 71
2020-01-20 08:00:00 6.9 6 Oeste 18 Oeste 0 -- -- 78
2020-01-20 07:00:00 7.5 14 Sudoeste 22 Oeste 2.2 -- -- 78
2020-01-20 06:00:00 7.7 8 Oeste 23 Sudeste 1.2 -- -- 81
2020-01-20 05:00:00 9.5 6 Noroeste 18 Noroeste 0 -- -- 55
2020-01-20 04:00:00 9.6 6 Noroeste 16 Noroeste 0 -- -- 56
2020-01-20 03:00:00 9.6 4 Oeste 11 Oeste 0 -- -- 59
2020-01-20 02:00:00 9.9 6 Norte 13 Noroeste 0 -- -- 61
2020-01-20 01:00:00 9.6 10 Oeste 14 Oeste 0 -- -- 64
2020-01-20 00:00:00 9.2 6 Sur 11 Sur 0 -- -- 66
2020-01-19 23:00:00 9.5 3 Sur 26 Este 0 -- -- 71
2020-01-19 22:00:00 10 21 Este 46 Este 0 -- -- 78
2020-01-19 21:00:00 10.7 2 Sudeste 12 Oeste 0 -- -- 57
2020-01-19 20:00:00 10.9 7 Oeste 13 Noroeste 0 -- -- 55
2020-01-19 19:00:00 11.3 5 Sudoeste 7 Sudoeste 0 -- -- 56
2020-01-19 18:00:00 12.1 3 Sur 28 Este 0 -- -- 57
2020-01-19 17:00:00 14.2 17 Este 31 Este 0 -- -- 47
2020-01-19 16:00:00 14.3 17 Oeste 30 Noroeste 0 -- -- 44
2020-01-19 15:00:00 16.4 7 Sur 18 Sudeste 0 -- -- 39
2020-01-19 14:00:00 15 10 Sudeste 19 Este 0 -- -- 45
2020-01-19 13:00:00 16.7 6 Este 18 Este 0 -- -- 40
2020-01-19 12:00:00 14.4 4 Noroeste 11 Oeste 0 -- -- 48
2020-01-19 11:00:00 14.6 9 Oeste 30 Oeste 0 -- -- 45
2020-01-19 10:00:00 14.6 9 Oeste 31 Oeste 0 -- -- 44
2020-01-19 09:00:00 13.2 14 Oeste 42 Oeste 0 -- -- 44
2020-01-19 08:00:00 12.7 29 Oeste 78 Oeste 0 -- -- 49
2020-01-19 07:00:00 12.9 52 Noroeste 88 Noroeste 0 -- -- 49
2020-01-19 06:00:00 13.8 41 Oeste 67 Noroeste 0 -- -- 45
2020-01-19 05:00:00 14.4 39 Noroeste 63 Noroeste 0 -- -- 50
2020-01-19 04:00:00 15.8 42 Noroeste 69 Oeste 0 -- -- 43
2020-01-19 03:00:00 15.4 47 Noroeste 65 Noroeste 0 -- -- 50
2020-01-19 02:00:00 14.5 33 Oeste 54 Oeste 0 -- -- 73
2020-01-19 01:00:00 13.3 35 Oeste 53 Oeste 0 -- -- 87
2020-01-19 00:00:00 13.2 29 Oeste 53 Oeste 0 -- -- 84
2020-01-18 23:00:00 13.5 27 Oeste 47 Oeste 0 -- -- 78
2020-01-18 22:00:00 13.5 27 Oeste 44 Oeste 0 -- -- 74
2020-01-18 21:00:00 13.2 15 Oeste 24 Oeste 0 -- -- 72
2020-01-18 20:00:00 12.6 12 Oeste 23 Oeste 0 -- -- 75
2020-01-18 19:00:00 12.7 7 Noroeste 15 Noroeste 0 -- -- 71
2020-01-18 18:00:00 13.4 5 Noroeste 18 Noroeste 0 -- -- 65
2020-01-18 17:00:00 13.9 2 Norte 6 Nordeste 0 -- -- 79
2020-01-18 16:00:00 13.7 4 Este 10 Este 0 -- -- 81
2020-01-18 15:00:00 13.3 7 Sudeste 10 Sudeste 0.2 -- -- 80
2020-01-18 14:00:00 13.4 0 Calma 8 Oeste 0 -- -- 70
2020-01-18 13:00:00 12.5 5 Oeste 26 Noroeste 0.8 -- -- 76
2020-01-18 12:00:00 14.3 3 Oeste 6 Noroeste 0 -- -- 69
2020-01-18 11:00:00 15.1 0 Calma 6 Este 0 -- -- 56
2020-01-18 10:00:00 14.2 0 Calma 9 Sur 0 -- -- 55
2020-01-18 09:00:00 12.9 5 Sur 8 Sur 0 -- -- 56
2020-01-18 08:00:00 12.5 5 Sur 6 Sur 0 -- -- 53
2020-01-18 07:00:00 12.8 3 Sudeste 10 Oeste 0 -- -- 51
2020-01-18 06:00:00 13.2 4 Oeste 13 Oeste 0 -- -- 49
2020-01-18 05:00:00 11.3 2 Sur 9 Oeste 0 -- -- 69
2020-01-18 04:00:00 11.3 7 Oeste 12 Oeste 0 -- -- 78
2020-01-18 03:00:00 12.2 9 Sur 14 Sudeste 0 -- -- 78
2020-01-18 02:00:00 12.8 0 Calma 4 Este 0 -- -- 53
2020-01-18 01:00:00 14 0 Calma 6 Oeste 0 -- -- 49
2020-01-18 00:00:00 14.5 2 Oeste 14 Noroeste 0 -- -- 48
2020-01-17 23:00:00 14.4 6 Oeste 14 Oeste 0 -- -- 46
2020-01-17 22:00:00 14 5 Oeste 12 Oeste 0 -- -- 50
2020-01-17 21:00:00 13.1 3 Oeste 10 Oeste 0 -- -- 53
2020-01-17 20:00:00 12.8 2 Sudoeste 5 Sudoeste 0 -- -- 53
2020-01-17 19:00:00 12.9 3 Oeste 6 Oeste 0 -- -- 58
2020-01-17 18:00:00 12.7 3 Sudoeste 6 Sudoeste 0 -- -- 63
2020-01-17 17:00:00 14.3 4 Sudeste 10 Sudeste 0 -- -- 54
2020-01-17 16:00:00 16 4 Sudeste 9 Sudeste 0 -- -- 49
2020-01-17 15:00:00 17 3 Este 13 Sudeste 0 -- -- 44
2020-01-17 14:00:00 16.3 9 Sudeste 15 Sudeste 0 -- -- 47
2020-01-17 13:00:00 16.2 6 Sudeste 13 Este 0 -- -- 51
2020-01-17 12:00:00 15.6 5 Este 17 Sudeste 0 -- -- 52
2020-01-17 11:00:00 15.4 3 Sur 9 Este 0 -- -- 47
2020-01-17 10:00:00 13.9 0 Calma 9 Este 0 -- -- 58
2020-01-17 09:00:00 11.3 5 Sur 9 Sur 0 -- -- 61
2020-01-17 08:00:00 10.1 5 Sur 12 Sudeste 0 -- -- 71
2020-01-17 07:00:00 9.7 4 Sur 9 Sudeste 0 -- -- 67
2020-01-17 06:00:00 9.9 6 Sur 11 Sur 0 -- -- 75
2020-01-17 05:00:00 10 6 Oeste 13 Sur 0 -- -- 74
2020-01-17 04:00:00 10 5 Sudoeste 22 Noroeste 0 -- -- 73
2020-01-17 03:00:00 9.8 0 Calma 6 Sudeste 0 -- -- 75
2020-01-17 02:00:00 9.8 3 Sur 5 Sur 0 -- -- 78
2020-01-17 01:00:00 10 0 Calma 4 Sudoeste 0 -- -- 76
2020-01-17 00:00:00 10.3 2 Sudeste 7 Sudoeste 0 -- -- 77
2020-01-16 23:00:00 10.4 0 Calma 5 Sudoeste 0 -- -- 61
2020-01-16 22:00:00 10.8 2 Oeste 6 Oeste 0 -- -- 60
2020-01-16 21:00:00 10.7 2 Oeste 9 Oeste 0 -- -- 51
2020-01-16 20:00:00 10.6 2 Sudoeste 5 Oeste 0 -- -- 56
2020-01-16 19:00:00 10.8 3 Oeste 4 Oeste 0 -- -- 72
2020-01-16 18:00:00 11.5 3 Oeste 5 Sudoeste 0 -- -- 82
2020-01-16 17:00:00 12.9 0 Calma 6 Sudeste 0 -- -- 76
2020-01-16 16:00:00 15.2 3 Sudeste 10 Este 0 -- -- 67
2020-01-16 15:00:00 15.2 6 Este 15 Sudeste 0 -- -- 64
2020-01-16 14:00:00 15.3 10 Sudeste 14 Sudeste 0 -- -- 61
2020-01-16 13:00:00 15.8 8 Sudeste 14 Sudeste 0 -- -- 51
2020-01-16 12:00:00 16.6 6 Sudeste 12 Este 0 -- -- 46
2020-01-16 11:00:00 15.5 2 Este 5 Este 0 -- -- 55
2020-01-16 10:00:00 14.2 5 Este 8 Sudeste 0 -- -- 55
2020-01-16 09:00:00 11.1 2 Sudoeste 4 Sudoeste 0 -- -- 62
2020-01-16 08:00:00 10 2 Sur 3 Sur 0 -- -- 60
2020-01-16 07:00:00 10 0 Calma 3 Sur 0 -- -- 54
2020-01-16 06:00:00 10.3 3 Oeste 4 Oeste 0 -- -- 55
2020-01-16 05:00:00 9.7 0 Calma 3 Oeste 0 -- -- 67
2020-01-16 04:00:00 10.1 0 Calma 4 Oeste 0 -- -- 64
2020-01-16 03:00:00 10.1 2 Sur 5 Sudoeste 0 -- -- 64
2020-01-16 02:00:00 10.5 2 Sur 5 Oeste 0 -- -- 62
2020-01-16 01:00:00 10.7 4 Sudoeste 5 Oeste 0 -- -- 65
2020-01-16 00:00:00 10.5 2 Sur 5 Sudoeste 0 -- -- 68
2020-01-15 23:00:00 11.1 2 Sudoeste 8 Oeste 0 -- -- 66
2020-01-15 22:00:00 11.3 3 Oeste 8 Oeste 0 -- -- 66
2020-01-15 21:00:00 10.8 2 Noroeste 6 Oeste 0 -- -- 67
2020-01-15 20:00:00 10.3 0 Calma 4 Sur 0 -- -- 73
2020-01-15 19:00:00 10.3 2 Sudoeste 6 Sudeste 0 -- -- 75
2020-01-15 18:00:00 11.6 2 Sur 9 Oeste 0 -- -- 63
2020-01-15 17:00:00 12.3 5 Sur 8 Sur 0 -- -- 60
2020-01-15 16:00:00 15.8 0 Calma 9 Este 0 -- -- 52
2020-01-15 15:00:00 15 6 Sudeste 14 Sudeste 0 -- -- 54
2020-01-15 14:00:00 15 8 Sudeste 15 Sudeste 0 -- -- 56
2020-01-15 13:00:00 14.7 6 Este 11 Este 0 -- -- 59
2020-01-15 12:00:00 14.3 7 Este 12 Este 0 -- -- 57
2020-01-15 11:00:00 13.8 2 Sudeste 7 Nordeste 0 -- -- 55
2020-01-15 10:00:00 11.9 0 Calma 4 Oeste 0 -- -- 58
2020-01-15 09:00:00 9.5 0 Calma 6 Sudoeste 0 -- -- 69
2020-01-15 08:00:00 9 3 Sudoeste 6 Oeste 0 -- -- 68
2020-01-15 07:00:00 9.8 0 Calma 9 Sur 0 -- -- 70
2020-01-15 06:00:00 9.9 5 Sur 10 Sudeste 0 -- -- 61
2020-01-15 05:00:00 10 0 Calma 7 Sudoeste 0 -- -- 55
2020-01-15 04:00:00 10 6 Oeste 10 Oeste 0 -- -- 53
2020-01-15 03:00:00 10.6 4 Oeste 9 Oeste 0 -- -- 49
2020-01-15 02:00:00 11.2 2 Noroeste 11 Oeste 0 -- -- 48
2020-01-15 01:00:00 10.8 4 Sur 14 Noroeste 0 -- -- 52
2020-01-15 00:00:00 11.3 6 Noroeste 15 Oeste 0 -- -- 51
2020-01-14 23:00:00 11 8 Oeste 18 Oeste 0 -- -- 55
2020-01-14 22:00:00 10.8 3 Noroeste 15 Oeste 0 -- -- 61
2020-01-14 21:00:00 10.6 4 Sudoeste 8 Sudoeste 0 -- -- 65
2020-01-14 20:00:00 10.7 0 Calma 9 Sudoeste 0 -- -- 67
2020-01-14 19:00:00 11.8 4 Noroeste 26 Oeste 0 -- -- 67
2020-01-14 18:00:00 12.2 4 Norte 23 Oeste 0 -- -- 69
2020-01-14 17:00:00 12.8 12 Oeste 28 Oeste 0 -- -- 63
2020-01-14 16:00:00 14.1 9 Noroeste 29 Oeste 0 -- -- 61
2020-01-14 15:00:00 14.5 13 Oeste 28 Oeste 0 -- -- 55
2020-01-14 14:00:00 14.5 14 Oeste 28 Oeste 0 -- -- 57
2020-01-14 13:00:00 13.9 12 Oeste 31 Oeste 0 -- -- 59
2020-01-14 12:00:00 14.1 14 Oeste 27 Oeste 0 -- -- 52
2020-01-14 11:00:00 13.3 10 Oeste 20 Oeste 0 -- -- 52
2020-01-14 10:00:00 11.4 4 Oeste 12 Sudoeste 0 -- -- 63
2020-01-14 09:00:00 8.6 3 Sur 6 Sudoeste 0 -- -- 71
2020-01-14 08:00:00 7.5 3 Sur 8 Sur 0 -- -- 78
2020-01-14 07:00:00 8.4 2 Sur 11 Oeste 0 -- -- 52
2020-01-14 06:00:00 8.2 4 Oeste 12 Oeste 0 -- -- 77
2020-01-14 05:00:00 8.1 4 Sudoeste 11 Sudeste 0 -- -- 75
2020-01-14 04:00:00 8.1 0 Calma 7 Sur 0 -- -- 84
2020-01-14 03:00:00 8.1 0 Calma 8 Oeste 0 -- -- 74
2020-01-14 02:00:00 8.2 2 Sur 8 Sudoeste 0 -- -- 75
2020-01-14 01:00:00 8.7 0 Calma 10 Oeste 0 -- -- 74
2020-01-14 00:00:00 8.6 0 Calma 8 Sudoeste 0 -- -- 82
2020-01-13 23:00:00 8.9 3 Noroeste 5 Sudoeste 0 -- -- 82
2020-01-13 22:00:00 9 3 Sudoeste 8 Sudoeste 0 -- -- 84
2020-01-13 21:00:00 9.1 4 Sur 7 Sur 0 -- -- 84
2020-01-13 20:00:00 10.3 4 Oeste 14 Sudoeste 0 -- -- 80
2020-01-13 19:00:00 10.1 3 Sudoeste 15 Sudoeste 0 -- -- 79
2020-01-13 18:00:00 11.3 12 Sudoeste 19 Sudoeste 0 -- -- 77
2020-01-13 17:00:00 12.4 9 Sudoeste 17 Sudoeste 0 -- -- 73
2020-01-13 16:00:00 14.1 9 Sudoeste 17 Sudoeste 0 -- -- 66
2020-01-13 15:00:00 14 7 Sur 20 Sudeste 0 -- -- 69
2020-01-13 14:00:00 13.3 11 Sudeste 17 Sudeste 0 -- -- 73
2020-01-13 13:00:00 13.4 10 Sudeste 19 Sudeste 0 -- -- 72
2020-01-13 12:00:00 13.6 7 Sudeste 12 Sudeste 0 -- -- 71
2020-01-13 11:00:00 13.6 3 Nordeste 8 Este 0 -- -- 72
2020-01-13 10:00:00 11.9 0 Calma 4 Norte 0 -- -- 73
2020-01-13 09:00:00 8.9 0 Calma 6 Sur 0 -- -- 87
2020-01-13 08:00:00 8.5 4 Oeste 5 Oeste 0 -- -- 88
2020-01-13 07:00:00 8.3 4 Oeste 8 Oeste 0 -- -- 88
2020-01-13 06:00:00 8.6 3 Oeste 11 Sudoeste 0 -- -- 89
2020-01-13 05:00:00 8.7 7 Sudoeste 9 Sudoeste 0 -- -- 90
2020-01-13 04:00:00 8.9 0 Calma 3 Sudoeste 0 -- -- 86
2020-01-13 03:00:00 9.3 0 Calma 11 Oeste 0 -- -- 86
2020-01-13 02:00:00 9.7 8 Oeste 10 Oeste 0 -- -- 86
2020-01-13 01:00:00 9.4 0 Calma 4 Sudeste 0 -- -- 87
2020-01-13 00:00:00 9.5 5 Sudoeste 8 Sudoeste 0 -- -- 85
2020-01-12 23:00:00 9.8 4 Oeste 6 Sudoeste 0 -- -- 84
2020-01-12 22:00:00 9.8 3 Oeste 5 Oeste 0 -- -- 87
2020-01-12 21:00:00 10 0 Calma 10 Sudoeste 0 -- -- 85
2020-01-12 20:00:00 10.2 4 Oeste 8 Oeste 0 -- -- 85
2020-01-12 19:00:00 10.8 6 Oeste 9 Oeste 0 -- -- 83
2020-01-12 18:00:00 12.2 4 Oeste 15 Oeste 0 -- -- 74
2020-01-12 17:00:00 12.9 11 Sudoeste 19 Sudoeste 0 -- -- 72
2020-01-12 16:00:00 14.6 11 Sudoeste 21 Oeste 0 -- -- 68
2020-01-12 15:00:00 15.2 7 Noroeste 23 Sudoeste 0 -- -- 63
2020-01-12 14:00:00 15.1 11 Sudoeste 23 Sur 0 -- -- 62
2020-01-12 13:00:00 15.6 8 Sur 16 Sur 0 -- -- 62
2020-01-12 12:00:00 13.9 7 Norte 15 Este 0 -- -- 66
2020-01-12 11:00:00 14.4 3 Este 6 Este 0 -- -- 57
2020-01-12 10:00:00 12.5 0 Calma 5 Este 0 -- -- 63
2020-01-12 09:00:00 9.5 3 Sudoeste 8 Oeste 0 -- -- 76
2020-01-12 08:00:00 8.5 2 Sudoeste 6 Sudoeste 0 -- -- 78
2020-01-12 07:00:00 8.6 4 Sur 6 Sur 0 -- -- 79
2020-01-12 06:00:00 8.8 2 Sur 6 Sudoeste 0 -- -- 78
2020-01-12 05:00:00 9.4 0 Calma 14 Oeste 0 -- -- 76
2020-01-12 04:00:00 9.4 9 Oeste 14 Oeste 0 -- -- 79
2020-01-12 03:00:00 9.3 5 Sudoeste 6 Sudoeste 0 -- -- 83
2020-01-12 02:00:00 9.6 0 Calma 7 Oeste 0 -- -- 78
2020-01-12 01:00:00 9.9 0 Calma 6 Oeste 0 -- -- 75
2020-01-12 00:00:00 10.3 4 Oeste 7 Oeste 0 -- -- 71
2020-01-11 23:00:00 10.8 2 Oeste 9 Sudeste 0 -- -- 69
2020-01-11 22:00:00 10.7 6 Sudeste 12 Sudeste 0 -- -- 69
2020-01-11 21:00:00 10.9 4 Sur 10 Sur 0 -- -- 72
2020-01-11 20:00:00 11.3 0 Calma 4 Sur 0 -- -- 70
2020-01-11 19:00:00 11.2 4 Sur 7 Sudoeste 0 -- -- 71
2020-01-11 18:00:00 11.9 3 Sur 6 Sudeste 0 -- -- 69
2020-01-11 17:00:00 12.9 3 Sudeste 9 Sudeste 0 -- -- 65
2020-01-11 16:00:00 14.5 5 Sudeste 18 Sudeste 0 -- -- 58
2020-01-11 15:00:00 15.3 6 Sudeste 17 Sur 0 -- -- 51
2020-01-11 14:00:00 16.3 8 Sur 19 Sur 0 -- -- 46
2020-01-11 13:00:00 15.5 7 Sudeste 12 Este 0 -- -- 51
2020-01-11 12:00:00 13.1 4 Oeste 7 Sudeste 0 -- -- 64
2020-01-11 11:00:00 12.3 5 Sudeste 9 Sur 0 -- -- 60
2020-01-11 10:00:00 11.4 7 Sur 11 Sudeste 0 -- -- 64
2020-01-11 09:00:00 10.6 0 Calma 12 Oeste 0 -- -- 54
2020-01-11 08:00:00 10.2 6 Oeste 12 Oeste 0 -- -- 55
2020-01-11 07:00:00 10 6 Oeste 16 Oeste 0 -- -- 64
2020-01-11 06:00:00 9.9 5 Sudoeste 12 Sudoeste 0 -- -- 82
2020-01-11 05:00:00 10 11 Oeste 14 Oeste 0 -- -- 84
2020-01-11 04:00:00 9.9 5 Sur 8 Sudoeste 0 -- -- 88
2020-01-11 03:00:00 9.7 5 Sur 7 Sudoeste 0 -- -- 85
2020-01-11 02:00:00 10.2 3 Oeste 5 Oeste 0 -- -- 85
2020-01-11 01:00:00 10.2 0 Calma 7 Oeste 0 -- -- 84
2020-01-11 00:00:00 11.2 3 Oeste 11 Oeste 0 -- -- 81
2020-01-10 23:00:00 11.2 2 Oeste 9 Oeste 0 -- -- 84
2020-01-10 22:00:00 11.9 3 Nordeste 8 Oeste 0.2 -- -- 83
2020-01-10 21:00:00 12 3 Este 23 Este 0 -- -- 80
2020-01-10 20:00:00 12.5 6 Este 17 Este 0 -- -- 73
2020-01-10 19:00:00 12.3 4 Este 13 Nordeste 0 -- -- 79
2020-01-10 18:00:00 12.7 3 Sudeste 7 Sudeste 0 -- -- 81
2020-01-10 17:00:00 13.2 7 Sudeste 14 Sudeste 0 -- -- 79
2020-01-10 16:00:00 15.5 4 Este 11 Este 0 -- -- 67
2020-01-10 15:00:00 15.9 7 Nordeste 15 Sudeste 0 -- -- 65
2020-01-10 14:00:00 16.1 8 Sudeste 17 Sudeste 0 -- -- 63
2020-01-10 13:00:00 15.5 8 Sudeste 18 Sudeste 0 -- -- 66
2020-01-10 12:00:00 15.6 6 Este 9 Este 0 -- -- 58
2020-01-10 11:00:00 14.9 0 Calma 4 Nordeste 0 -- -- 57
2020-01-10 10:00:00 12.6 3 Sudoeste 9 Oeste 0 -- -- 66
2020-01-10 09:00:00 9.9 4 Oeste 8 Oeste 0 -- -- 81
2020-01-10 08:00:00 9.6 2 Oeste 9 Oeste 0 -- -- 79
2020-01-10 07:00:00 9.2 8 Oeste 10 Oeste 0 -- -- 79
2020-01-10 06:00:00 9.2 0 Calma 7 Oeste 0 -- -- 75
2020-01-10 05:00:00 9.8 2 Oeste 13 Oeste 0 -- -- 73
2020-01-10 04:00:00 10.1 8 Oeste 19 Oeste 0 -- -- 73
2020-01-10 03:00:00 10.4 13 Oeste 22 Oeste 0 -- -- 77
2020-01-10 02:00:00 11.2 11 Oeste 22 Oeste 0 -- -- 76
2020-01-10 01:00:00 10.8 5 Sur 19 Oeste 0 -- -- 76
2020-01-10 00:00:00 11.5 8 Oeste 21 Oeste 0 -- -- 77
2020-01-09 23:00:00 11.2 2 Oeste 6 Noroeste 0 -- -- 80
2020-01-09 22:00:00 11.3 3 Oeste 10 Oeste 0 -- -- 79
2020-01-09 21:00:00 11 0 Calma 13 Oeste 0 -- -- 78
2020-01-09 20:00:00 11.1 5 Sudoeste 9 Sudoeste 0 -- -- 77
2020-01-09 19:00:00 11.4 4 Sudoeste 12 Oeste 0 -- -- 76
2020-01-09 18:00:00 12.1 9 Oeste 15 Sudoeste 0 -- -- 70
2020-01-09 17:00:00 13.1 10 Sudoeste 17 Sudoeste 0 -- -- 68
2020-01-09 16:00:00 14.1 10 Sudoeste 17 Sudoeste 0 -- -- 64
2020-01-09 15:00:00 15 5 Sudoeste 16 Sur 0 -- -- 58
2020-01-09 14:00:00 14.7 7 Sur 15 Este 0 -- -- 60
2020-01-09 13:00:00 14.9 6 Este 14 Nordeste 0 -- -- 58
2020-01-09 12:00:00 13.6 4 Este 8 Este 0 -- -- 63
2020-01-09 11:00:00 12.8 2 Este 6 Sudeste 0 -- -- 68
2020-01-09 10:00:00 12 0 Calma 5 Noroeste 0 -- -- 70
2020-01-09 09:00:00 11.1 0 Calma 3 Sur 0 -- -- 74
2020-01-09 08:00:00 10.6 0 Calma 5 Oeste 0 -- -- 76
2020-01-09 07:00:00 10.7 3 Oeste 4 Oeste 0 -- -- 74
2020-01-09 06:00:00 10.8 2 Oeste 10 Oeste 0 -- -- 74
2020-01-09 05:00:00 10.6 6 Oeste 11 Oeste 0 -- -- 77
2020-01-09 04:00:00 10.5 4 Oeste 13 Norte 0 -- -- 78
2020-01-09 03:00:00 10.9 5 Oeste 8 Oeste 0 -- -- 78
2020-01-09 02:00:00 11 3 Oeste 9 Este 0 -- -- 81
2020-01-09 01:00:00 11.1 4 Este 9 Este 0 -- -- 84
2020-01-09 00:00:00 11.2 0 Calma 6 Noroeste 0 -- -- 82
2020-01-08 23:00:00 11.3 3 Oeste 6 Norte 0 -- -- 83
2020-01-08 22:00:00 11.2 2 Norte 9 Nordeste 0 -- -- 87
2020-01-08 21:00:00 11.1 0 Calma 8 Nordeste 0 -- -- 89
2020-01-08 20:00:00 10.6 0 Calma 4 Norte 0 -- -- 91
2020-01-08 19:00:00 10.1 0 Calma 6 Sudeste 0 -- -- 91
2020-01-08 18:00:00 10.4 3 Sur 4 Sudeste 0 -- -- 88
2020-01-08 17:00:00 11.7 3 Sur 6 Sur 0 -- -- 83
2020-01-08 16:00:00 13.7 4 Sudeste 13 Sudeste 0 -- -- 76
2020-01-08 15:00:00 14.3 8 Este 13 Este 0 -- -- 73
2020-01-08 14:00:00 14.6 6 Sudeste 17 Sudeste 0 -- -- 72
2020-01-08 13:00:00 14.3 9 Sudeste 19 Sudeste 0 -- -- 74
2020-01-08 12:00:00 13.8 6 Sudeste 14 Este 0 -- -- 74
2020-01-08 11:00:00 13.2 2 Nordeste 5 Norte 0 -- -- 75
2020-01-08 10:00:00 11.3 0 Calma 4 Oeste 0 -- -- 80
2020-01-08 09:00:00 8.4 0 Calma 3 Oeste 0 -- -- 89
2020-01-08 08:00:00 8.2 0 Calma 3 Sudoeste 0 -- -- 91
2020-01-08 07:00:00 8.4 0 Calma 4 Sur 0 -- -- 89
2020-01-08 06:00:00 8.7 0 Calma 3 Sudeste 0 -- -- 88
2020-01-08 05:00:00 8.8 2 Sudeste 3 Sudoeste 0 -- -- 83
2020-01-08 04:00:00 9.1 0 Calma 4 Oeste 0 -- -- 83
2020-01-08 03:00:00 9.1 0 Calma 5 Oeste 0 -- -- 87
2020-01-08 02:00:00 9.2 2 Oeste 4 Sudoeste 0 -- -- 87
2020-01-08 01:00:00 9.3 0 Calma 6 Sur 0 -- -- 87
2020-01-08 00:00:00 9.6 4 Oeste 6 Oeste 0 -- -- 88
2020-01-07 23:00:00 9.7 5 Oeste 7 Oeste 0 -- -- 88
2020-01-07 22:00:00 9.4 0 Calma 5 Sur 0 -- -- 89
2020-01-07 21:00:00 9.7 2 Oeste 5 Oeste 0 -- -- 89
2020-01-07 20:00:00 10.2 2 Oeste 10 Oeste 0 -- -- 87
2020-01-07 19:00:00 10.3 4 Noroeste 6 Oeste 0 -- -- 87
2020-01-07 18:00:00 10.9 0 Calma 5 Oeste 0 -- -- 85
2020-01-07 17:00:00 12.1 2 Sur 10 Sudeste 0 -- -- 82
2020-01-07 16:00:00 12.4 6 Sudeste 13 Sudeste 0 -- -- 81
2020-01-07 15:00:00 13.4 8 Sudeste 17 Sudeste 0 -- -- 76
2020-01-07 14:00:00 14 10 Sudeste 18 Sudeste 0 -- -- 74
2020-01-07 13:00:00 13.9 12 Sudeste 17 Sudeste 0 -- -- 73
2020-01-07 12:00:00 14 8 Sudeste 17 Este 0 -- -- 72
2020-01-07 11:00:00 14.1 3 Nordeste 6 Este 0 -- -- 62
2020-01-07 10:00:00 12.1 0 Calma 6 Oeste 0 -- -- 71
2020-01-07 09:00:00 9.4 4 Oeste 8 Oeste 0 -- -- 79
2020-01-07 08:00:00 8.4 2 Sudoeste 6 Oeste 0 -- -- 80
2020-01-07 07:00:00 8.8 0 Calma 7 Oeste 0 -- -- 77
2020-01-07 06:00:00 8.9 2 Oeste 5 Noroeste 0 -- -- 79
2020-01-07 05:00:00 8.9 0 Calma 5 Sudoeste 0 -- -- 79
2020-01-07 04:00:00 9.1 0 Calma 8 Sudoeste 0 -- -- 79
2020-01-07 03:00:00 9.2 8 Oeste 13 Oeste 0 -- -- 79
2020-01-07 02:00:00 9.5 6 Oeste 12 Oeste 0 -- -- 77
2020-01-07 01:00:00 9 4 Sudoeste 6 Sudoeste 0 -- -- 80
2020-01-07 00:00:00 9.2 0 Calma 6 Oeste 0 -- -- 80
2020-01-06 23:00:00 9.4 0 Calma 4 Sudoeste 0 -- -- 78
2020-01-06 22:00:00 9.5 0 Calma 8 Oeste 0 -- -- 76
2020-01-06 21:00:00 9.9 5 Oeste 9 Oeste 0 -- -- 75
2020-01-06 20:00:00 9.9 0 Calma 6 Oeste 0 -- -- 75
2020-01-06 19:00:00 9.6 5 Oeste 6 Oeste 0 -- -- 78
2020-01-06 18:00:00 10 3 Sudoeste 5 Sudoeste 0 -- -- 77
2020-01-06 17:00:00 11.1 3 Sur 6 Sudeste 0 -- -- 74
2020-01-06 16:00:00 13.6 4 Sudeste 10 Sudeste 0 -- -- 62
2020-01-06 15:00:00 14.1 7 Sudeste 13 Sudeste 0 -- -- 60
2020-01-06 14:00:00 14.2 6 Sudeste 15 Este 0 -- -- 59
2020-01-06 13:00:00 14 8 Sudeste 14 Sudeste 0 -- -- 55
2020-01-06 12:00:00 13.9 5 Este 11 Este 0 -- -- 65
2020-01-06 11:00:00 13.7 4 Este 5 Este 0 -- -- 66
2020-01-06 10:00:00 12.4 0 Calma 5 Sudoeste 0 -- -- 75